Time;durP1;ratioP1;P1;durP2;ratioP2;P2;SDS_P1;SDS_P2;PMS_P1;PMS_P2;Temp;Humidity;BMP_temperature;BMP_pressure;BME280_temperature;BME280_humidity;BME280_pressure;Samples;Min_cycle;Max_cycle;Signal;HPM_P1;HPM_P2
2022/07/05 00:00:45;;;;;;;;;;;;;;;25.76;59.29;101432.41;5050041;28;20440;-80
2022/07/05 00:03:11;;;;;;;;;;;;;;;25.74;59.05;101418.19;5044507;28;20420;-81
2022/07/05 00:05:37;;;;;;;;;;;;;;;25.73;59.36;101430.63;5044170;28;19908;-81
2022/07/05 00:08:02;;;;;;;;;;;;;;;25.73;59.44;101427.09;5049886;28;19908;-81
2022/07/05 00:10:28;;;;;;;;;;;;;;;25.74;59.02;101423.53;5049870;28;20311;-80
2022/07/05 00:12:53;;;;;;;;;;;;;;;25.72;59.29;101418.16;5049486;28;19913;-80
2022/07/05 00:15:19;;;;;;;;;;;;;;;25.71;59.27;101415.47;5040327;28;20062;-80
2022/07/05 00:17:44;;;;;;;;;;;;;;;25.71;58.97;101410.13;5031028;28;19959;-81
2022/07/05 00:20:10;;;;;;;;;;;;;;;25.71;59.20;101412.81;5049937;28;19908;-81
2022/07/05 00:22:35;;;;;;;;;;;;;;;25.72;58.98;101412.81;5050280;28;19909;-81
2022/07/05 00:25:00;;;;;;;;;;;;;;;25.67;59.05;101411.91;5049554;28;19909;-80
2022/07/05 00:27:26;;;;;;;;;;;;;;;25.63;59.08;101406.53;5032141;28;19999;-81
2022/07/05 00:29:51;;;;;;;;;;;;;;;25.66;59.28;101396.75;5018006;28;20275;-81
2022/07/05 00:32:17;;;;;;;;;;;;;;;25.66;59.05;101403.91;5017537;28;20445;-81
2022/07/05 00:34:45;;;;;;;;;;;;;;;25.63;58.83;101398.53;5053585;28;19966;-81
2022/07/05 00:37:11;;;;;;;;;;;;;;;25.63;58.96;101401.19;5035857;28;20442;-80
2022/07/05 00:39:36;;;;;;;;;;;;;;;25.63;58.96;101402.09;5053627;28;19909;-80
2022/07/05 00:42:02;;;;;;;;;;;;;;;25.63;59.08;101401.19;5053243;28;19916;-80
2022/07/05 00:44:28;;;;;;;;;;;;;;;25.63;59.02;101402.09;5024832;28;20413;-80
2022/07/05 00:46:53;;;;;;;;;;;;;;;25.62;58.79;101386.94;5047319;28;20411;-81
2022/07/05 00:49:19;;;;;;;;;;;;;;;25.64;58.82;101401.22;5042777;28;19947;-80
2022/07/05 00:51:44;;;;;;;;;;;;;;;25.67;58.83;101397.63;5045446;28;19913;-81
2022/07/05 00:54:09;;;;;;;;;;;;;;;25.65;58.98;101396.75;5052394;28;19935;-81
2022/07/05 00:56:35;;;;;;;;;;;;;;;25.63;58.84;101396.72;5046560;28;19961;-79
2022/07/05 00:59:00;;;;;;;;;;;;;;;25.64;58.72;101393.19;5053178;28;20375;-80
2022/07/05 01:01:26;;;;;;;;;;;;;;;25.57;58.67;101394.06;5053006;28;19978;-81
2022/07/05 01:03:51;;;;;;;;;;;;;;;25.57;59.09;101389.59;5053083;28;20491;-81
2022/07/05 01:06:17;;;;;;;;;;;;;;;25.58;58.86;101386.03;5052938;28;19916;-81
2022/07/05 01:08:43;;;;;;;;;;;;;;;25.56;58.73;101387.81;5053337;28;19908;-79
2022/07/05 01:11:09;;;;;;;;;;;;;;;25.57;58.62;101383.38;5035220;28;19931;-80
2022/07/05 01:13:35;;;;;;;;;;;;;;;25.57;58.42;101384.25;5053177;28;20011;-80
2022/07/05 01:16:00;;;;;;;;;;;;;;;25.57;58.62;101392.28;5046585;28;19935;-80
2022/07/05 01:18:26;;;;;;;;;;;;;;;25.58;58.62;101390.50;5035308;28;19915;-80
2022/07/05 01:20:51;;;;;;;;;;;;;;;25.54;58.46;101394.06;5035185;28;19913;-80
2022/07/05 01:23:20;;;;;;;;;;;;;;;25.56;58.42;101393.16;5038743;28;20506;-79
2022/07/05 01:25:48;;;;;;;;;;;;;;;25.57;58.48;101388.72;5052694;28;19908;-80
2022/07/05 01:28:14;;;;;;;;;;;;;;;25.52;58.40;101387.81;5049090;28;20491;-80
2022/07/05 01:30:40;;;;;;;;;;;;;;;25.51;58.52;101389.59;5042139;28;19959;-81
2022/07/05 01:33:05;;;;;;;;;;;;;;;25.51;58.49;101392.28;5034821;28;19913;-80
2022/07/05 01:35:31;;;;;;;;;;;;;;;25.49;58.67;101394.03;5034920;28;19908;-81
2022/07/05 01:37:56;;;;;;;;;;;;;;;25.46;58.70;101388.66;5052752;28;20061;-81
2022/07/05 01:40:21;;;;;;;;;;;;;;;25.49;58.29;101386.03;5028915;28;19956;-80
2022/07/05 01:42:47;;;;;;;;;;;;;;;25.48;58.36;101386.91;5025700;28;19912;-81
2022/07/05 01:45:38;;;;;;;;;;;;;;;25.49;58.46;101388.69;5020713;28;19932;-80
2022/07/05 01:47:58;;;;;;;;;;;;;;;25.50;58.43;101385.13;5052210;28;19913;-80
2022/07/05 01:50:23;;;;;;;;;;;;;;;25.49;58.35;101390.50;5030570;28;20479;-81
2022/07/05 01:52:49;;;;;;;;;;;;;;;25.48;58.20;101394.03;5040904;28;20459;-81
2022/07/05 01:55:14;;;;;;;;;;;;;;;25.45;58.60;101389.56;5026853;28;19913;-81
2022/07/05 01:57:39;;;;;;;;;;;;;;;25.44;58.74;101385.09;5050286;28;20338;-80
2022/07/05 02:00:05;;;;;;;;;;;;;;;25.45;58.32;101381.56;5038531;28;20388;-81
2022/07/05 02:02:30;;;;;;;;;;;;;;;25.45;58.13;101384.22;5051608;28;20358;-80
2022/07/05 02:04:56;;;;;;;;;;;;;;;25.45;58.18;101402.06;5052019;28;20024;-81
2022/07/05 02:07:21;;;;;;;;;;;;;;;25.45;58.12;101394.94;5051862;28;20319;-80
2022/07/05 02:09:47;;;;;;;;;;;;;;;25.46;58.17;101391.34;5043767;28;20294;-81
2022/07/05 02:12:12;;;;;;;;;;;;;;;25.42;58.20;101386.91;5051875;28;19949;-81
2022/07/05 02:14:38;;;;;;;;;;;;;;;25.43;58.18;101394.03;5051673;28;20662;-81
2022/07/05 02:17:03;;;;;;;;;;;;;;;25.38;58.17;101395.81;5051833;28;20422;-81
2022/07/05 02:19:29;;;;;;;;;;;;;;;25.41;58.57;101409.19;5051541;28;20384;-81
2022/07/05 02:21:54;;;;;;;;;;;;;;;25.41;58.25;101403.81;5051964;28;19913;-80
2022/07/05 02:24:20;;;;;;;;;;;;;;;25.38;58.40;101409.19;5051681;28;19974;-79
2022/07/05 02:26:45;;;;;;;;;;;;;;;25.39;58.24;101406.47;5033452;28;19908;-81
2022/07/05 02:29:11;;;;;;;;;;;;;;;25.38;58.31;101418.09;5033948;28;19908;-80
2022/07/05 02:31:36;;;;;;;;;;;;;;;25.37;58.17;101418.94;5033549;28;20554;-81
2022/07/05 02:34:02;;;;;;;;;;;;;;;25.33;58.20;101422.50;5051541;28;19909;-81
2022/07/05 02:36:27;;;;;;;;;;;;;;;25.32;58.48;101428.75;5032205;28;20074;-80
2022/07/05 02:38:52;;;;;;;;;;;;;;;25.35;58.39;101426.06;5020728;28;19995;-80
2022/07/05 02:41:18;;;;;;;;;;;;;;;25.33;58.25;101418.94;5051458;28;19913;-81
2022/07/05 02:43:43;;;;;;;;;;;;;;;25.31;58.33;101434.09;5033192;28;19908;-80
2022/07/05 02:46:09;;;;;;;;;;;;;;;25.33;58.24;101426.97;5040433;28;19917;-80
2022/07/05 02:48:35;;;;;;;;;;;;;;;25.31;58.24;101429.63;5047881;28;19916;-80
2022/07/05 02:51:00;;;;;;;;;;;;;;;25.32;58.37;101431.44;5030518;28;20356;-80
2022/07/05 02:53:26;;;;;;;;;;;;;;;25.30;58.13;101419.84;5044741;28;20396;-81
2022/07/05 02:55:51;;;;;;;;;;;;;;;25.32;57.96;101420.75;5050211;28;19913;-80
2022/07/05 02:58:17;;;;;;;;;;;;;;;25.30;58.13;101422.50;5050952;28;19912;-81
2022/07/05 03:00:43;;;;;;;;;;;;;;;25.28;58.47;101421.63;5051101;28;20003;-81
2022/07/05 03:03:08;;;;;;;;;;;;;;;25.26;58.06;101422.50;5033011;28;19935;-81
2022/07/05 03:05:34;;;;;;;;;;;;;;;25.29;58.32;101430.50;5050774;28;20384;-81
2022/07/05 03:08:00;;;;;;;;;;;;;;;25.27;58.20;101427.81;5050943;28;19924;-81
2022/07/05 03:10:25;;;;;;;;;;;;;;;25.26;58.20;101426.06;5032832;28;20402;-81
2022/07/05 03:12:51;;;;;;;;;;;;;;;25.27;58.03;101426.94;5050679;28;19919;-81
2022/07/05 03:15:16;;;;;;;;;;;;;;;25.28;58.56;101428.75;5050854;28;19936;-81
2022/07/05 03:17:42;;;;;;;;;;;;;;;25.19;58.52;101430.47;5050471;28;19909;-81
2022/07/05 03:20:08;;;;;;;;;;;;;;;25.24;58.11;101421.59;5050719;28;19912;-81
2022/07/05 03:22:33;;;;;;;;;;;;;;;25.24;58.42;101424.28;5050780;28;19916;-80
2022/07/05 03:24:58;;;;;;;;;;;;;;;25.24;58.23;101418.94;5045538;28;19931;-81
2022/07/05 03:27:24;;;;;;;;;;;;;;;25.22;58.24;101426.03;5041489;28;20342;-81
2022/07/05 03:29:49;;;;;;;;;;;;;;;25.23;58.34;101427.81;5050211;28;19916;-80
2022/07/05 03:32:16;;;;;;;;;;;;;;;25.19;58.50;101419.75;5050623;28;20257;-81
2022/07/05 03:34:41;;;;;;;;;;;;;;;25.22;58.53;101426.03;5031751;28;19996;-81
2022/07/05 03:37:06;;;;;;;;;;;;;;;25.15;58.27;101433.13;5036967;28;20019;-81
2022/07/05 03:39:32;;;;;;;;;;;;;;;25.20;58.34;101431.38;5032448;28;20530;-80
2022/07/05 03:41:57;;;;;;;;;;;;;;;25.16;58.24;101435.78;5049944;28;19978;-79
2022/07/05 03:44:23;;;;;;;;;;;;;;;25.16;57.99;101425.06;5022337;28;19978;-81
2022/07/05 03:46:48;;;;;;;;;;;;;;;25.15;58.58;101425.09;5046356;28;19916;-80
2022/07/05 03:49:13;;;;;;;;;;;;;;;25.15;58.34;101425.97;5050208;28;19908;-80
2022/07/05 03:51:39;;;;;;;;;;;;;;;25.16;58.07;101417.06;5024568;28;20443;-79
2022/07/05 03:54:04;;;;;;;;;;;;;;;25.15;58.36;101425.09;5049891;28;20346;-81
2022/07/05 03:56:30;;;;;;;;;;;;;;;25.13;58.24;101422.41;5049921;28;20375;-81
2022/07/05 03:58:55;;;;;;;;;;;;;;;25.11;58.04;101421.50;5032141;28;20367;-81
2022/07/05 04:01:21;;;;;;;;;;;;;;;25.10;58.18;101419.69;5049814;28;19959;-82
2022/07/05 04:03:47;;;;;;;;;;;;;;;25.08;58.18;101426.84;5050070;28;19909;-80
2022/07/05 04:06:12;;;;;;;;;;;;;;;25.08;58.56;101429.53;5049497;28;19909;-81
2022/07/05 04:08:38;;;;;;;;;;;;;;;25.11;58.16;101423.28;5049827;28;19913;-79
2022/07/05 04:11:04;;;;;;;;;;;;;;;25.09;58.54;101423.28;5032070;28;19909;-81
2022/07/05 04:13:29;;;;;;;;;;;;;;;25.09;58.49;101427.75;5032132;28;19920;-81
2022/07/05 04:15:55;;;;;;;;;;;;;;;25.13;58.41;101422.41;5049558;28;19944;-81
2022/07/05 04:18:21;;;;;;;;;;;;;;;25.12;58.70;101427.75;5031982;28;20494;-81
2022/07/05 04:20:46;;;;;;;;;;;;;;;25.11;58.75;101420.63;5049717;28;20412;-81
2022/07/05 04:23:12;;;;;;;;;;;;;;;25.10;58.77;101435.75;5049691;28;20010;-81
2022/07/05 04:25:37;;;;;;;;;;;;;;;25.11;58.65;101434.88;5049841;28;20028;-81
2022/07/05 04:28:03;;;;;;;;;;;;;;;25.11;58.96;101434.88;5031590;28;19912;-81
2022/07/05 04:30:28;;;;;;;;;;;;;;;25.11;58.62;101437.53;5043757;28;19912;-80
2022/07/05 04:32:54;;;;;;;;;;;;;;;25.08;58.70;101437.53;5049719;28;20058;-81
2022/07/05 04:35:20;;;;;;;;;;;;;;;25.03;58.46;101425.03;5049406;28;20403;-81
2022/07/05 04:37:45;;;;;;;;;;;;;;;25.06;58.75;101427.72;5037613;28;19967;-81
2022/07/05 04:40:11;;;;;;;;;;;;;;;25.06;58.73;101415.25;5047170;28;19912;-80
2022/07/05 04:42:37;;;;;;;;;;;;;;;25.07;58.42;101422.38;5049408;28;19938;-81
2022/07/05 04:45:03;;;;;;;;;;;;;;;25.06;58.83;101422.34;5049292;28;20003;-81
2022/07/05 04:47:28;;;;;;;;;;;;;;;25.07;58.75;101426.84;5049753;28;19971;-81
2022/07/05 04:49:54;;;;;;;;;;;;;;;25.01;58.80;101417.00;5049320;28;19909;-83
2022/07/05 04:52:19;;;;;;;;;;;;;;;25.04;58.82;101424.13;5035102;28;19913;-82
2022/07/05 04:54:45;;;;;;;;;;;;;;;25.05;58.84;101418.81;5042336;28;20006;-83
2022/07/05 04:57:10;;;;;;;;;;;;;;;25.02;59.23;101426.81;5033068;28;19988;-83
2022/07/05 04:59:35;;;;;;;;;;;;;;;25.01;58.98;101419.66;5030275;28;19921;-84
2022/07/05 05:02:01;;;;;;;;;;;;;;;25.01;59.04;101416.13;5027067;28;19919;-84
2022/07/05 05:04:26;;;;;;;;;;;;;;;25.04;59.25;101416.13;5046803;28;19913;-83
2022/07/05 05:06:52;;;;;;;;;;;;;;;25.03;59.42;101411.66;5041598;28;19924;-79
2022/07/05 05:09:17;;;;;;;;;;;;;;;25.01;59.41;101406.31;5048857;28;19912;-81
2022/07/05 05:11:42;;;;;;;;;;;;;;;25.01;59.33;101408.97;5041236;28;19913;-81
2022/07/05 05:14:08;;;;;;;;;;;;;;;25.01;59.69;101410.78;5038798;28;20300;-81
2022/07/05 05:16:33;;;;;;;;;;;;;;;25.01;59.50;101414.31;5042535;28;19920;-85
2022/07/05 05:18:59;;;;;;;;;;;;;;;25.02;59.38;101423.22;5057688;28;19955;-81
2022/07/05 05:21:24;;;;;;;;;;;;;;;25.04;59.17;101409.00;5043140;28;20021;-85
2022/07/05 05:23:50;;;;;;;;;;;;;;;25.05;59.13;101410.78;5042253;28;20376;-86
2022/07/05 05:26:15;;;;;;;;;;;;;;;25.04;59.27;101410.78;5044643;28;19913;-87
2022/07/05 05:28:40;;;;;;;;;;;;;;;25.03;59.47;101409.00;5035054;28;20372;-83
2022/07/05 05:31:06;;;;;;;;;;;;;;;25.04;59.42;101410.78;5024224;28;19913;-83
2022/07/05 05:33:32;;;;;;;;;;;;;;;25.04;59.51;101414.34;5047501;28;19916;-84
2022/07/05 05:35:57;;;;;;;;;;;;;;;25.04;59.61;101409.00;5053766;28;19913;-83
2022/07/05 05:38:22;;;;;;;;;;;;;;;25.06;59.35;101417.00;5056694;28;20004;-85
2022/07/05 05:40:48;;;;;;;;;;;;;;;25.08;59.51;101413.50;5034735;28;20350;-84
2022/07/05 05:43:13;;;;;;;;;;;;;;;25.10;59.24;101413.47;5036741;28;19928;-88
2022/07/05 05:45:39;;;;;;;;;;;;;;;25.10;59.48;101409.00;5040744;28;20000;-87
2022/07/05 05:48:04;;;;;;;;;;;;;;;25.05;59.38;101416.13;5026220;28;20027;-87
2022/07/05 05:50:32;;;;;;;;;;;;;;;25.09;59.49;101427.75;5048425;28;19920;-87
2022/07/05 05:52:57;;;;;;;;;;;;;;;25.04;59.86;101422.38;5046531;28;19917;-83
2022/07/05 05:55:23;;;;;;;;;;;;;;;25.02;59.73;101426.81;5034255;28;19919;-83
2022/07/05 05:57:49;;;;;;;;;;;;;;;25.01;59.76;101417.00;5052129;28;19927;-83
2022/07/05 06:00:17;;;;;;;;;;;;;;;25.01;60.01;101426.81;5028802;28;20437;-82
2022/07/05 06:02:43;;;;;;;;;;;;;;;25.21;58.94;101427.84;5039156;28;19909;-82
2022/07/05 06:05:09;;;;;;;;;;;;;;;25.11;59.15;101431.31;5045896;28;19923;-81
2022/07/05 06:07:43;;;;;;;;;;;;;;;25.13;59.04;101422.41;5052782;28;19909;-82
2022/07/05 06:10:09;;;;;;;;;;;;;;;25.18;59.12;101422.41;5051801;28;19921;-82
2022/07/05 06:12:34;;;;;;;;;;;;;;;25.10;59.42;101422.38;5020305;28;20398;-84
2022/07/05 06:15:18;;;;;;;;;;;;;;;25.04;59.44;101426.81;5053289;28;20003;-84
2022/07/05 06:17:43;;;;;;;;;;;;;;;25.02;59.84;101428.56;5041485;28;19970;-85
2022/07/05 06:20:13;;;;;;;;;;;;;;;25.06;59.86;101428.63;5037172;28;19920;-84
2022/07/05 06:22:39;;;;;;;;;;;;;;;25.07;59.75;101432.19;5034698;28;20011;-85
2022/07/05 06:25:05;;;;;;;;;;;;;;;25.02;59.88;101429.50;5034645;28;20490;-85
2022/07/05 06:27:30;;;;;;;;;;;;;;;25.04;59.85;101426.81;5034838;28;19920;-84
2022/07/05 06:29:58;;;;;;;;;;;;;;;25.00;60.13;101431.25;5050481;28;19913;-86
2022/07/05 06:32:24;;;;;;;;;;;;;;;25.03;60.16;101427.72;5057670;28;19919;-85
2022/07/05 06:34:49;;;;;;;;;;;;;;;25.06;59.85;101427.72;5038679;28;19999;-85
2022/07/05 06:37:15;;;;;;;;;;;;;;;25.03;60.14;101427.72;5052307;28;19920;-85
2022/07/05 06:39:40;;;;;;;;;;;;;;;25.08;60.09;101425.94;5034925;28;20410;-84
2022/07/05 06:42:05;;;;;;;;;;;;;;;25.08;60.19;101431.28;5033643;28;20007;-84
2022/07/05 06:44:31;;;;;;;;;;;;;;;25.05;60.29;101432.16;5034631;28;19919;-86
2022/07/05 06:46:56;;;;;;;;;;;;;;;25.04;60.38;101433.06;5051952;28;19954;-85
2022/07/05 06:49:22;;;;;;;;;;;;;;;25.02;60.38;101423.22;5045276;28;19916;-86
2022/07/05 06:51:47;;;;;;;;;;;;;;;25.07;60.25;101417.03;5049129;28;20376;-85
2022/07/05 06:54:12;;;;;;;;;;;;;;;25.08;60.23;101425.94;5035464;28;19935;-87
2022/07/05 06:56:38;;;;;;;;;;;;;;;25.09;60.19;101420.59;5052090;28;19920;-86
2022/07/05 06:59:04;;;;;;;;;;;;;;;25.13;60.40;101427.75;5034383;28;20402;-86
2022/07/05 07:01:29;;;;;;;;;;;;;;;25.15;60.29;101428.66;5032806;28;19919;-86
2022/07/05 07:03:54;;;;;;;;;;;;;;;25.17;60.06;101434.00;5052234;28;20402;-86
2022/07/05 07:06:20;;;;;;;;;;;;;;;25.16;60.32;101426.88;5056697;28;19912;-86
2022/07/05 07:11:29;;;;;;;;;;;;;;;25.11;60.37;101426.84;5050483;28;19924;-85
2022/07/05 07:13:55;;;;;;;;;;;;;;;25.13;60.61;101433.09;5033520;28;19913;-84
2022/07/05 07:16:20;;;;;;;;;;;;;;;25.13;60.77;101430.44;5043379;28;19918;-84
2022/07/05 07:18:46;;;;;;;;;;;;;;;25.14;60.62;101431.31;5050759;28;20269;-85
2022/07/05 07:21:11;;;;;;;;;;;;;;;25.18;60.56;101428.66;5052098;28;20045;-83
2022/07/05 07:23:37;;;;;;;;;;;;;;;25.15;60.83;101436.66;5020018;28;20013;-84
2022/07/05 07:26:02;;;;;;;;;;;;;;;25.19;60.71;101438.47;5053738;28;19928;-85
2022/07/05 07:28:29;;;;;;;;;;;;;;;25.21;60.62;101434.94;5037600;28;19982;-85
2022/07/05 07:30:55;;;;;;;;;;;;;;;25.19;60.78;101437.59;5052279;28;19951;-85
2022/07/05 07:33:20;;;;;;;;;;;;;;;25.22;60.67;101432.28;5059598;28;19920;-85
2022/07/05 07:35:45;;;;;;;;;;;;;;;25.23;60.52;101444.78;5034126;28;20395;-86
2022/07/05 07:38:11;;;;;;;;;;;;;;;25.22;60.58;101439.41;5050258;28;20379;-85
2022/07/05 07:40:36;;;;;;;;;;;;;;;25.24;60.56;101440.31;5051418;28;19909;-85
2022/07/05 07:43:02;;;;;;;;;;;;;;;25.23;60.81;101438.50;5050875;28;20376;-86
2022/07/05 07:45:30;;;;;;;;;;;;;;;25.25;60.91;101436.72;5058809;28;19913;-85
2022/07/05 07:47:56;;;;;;;;;;;;;;;25.27;60.67;101446.53;5051352;28;20007;-84
2022/07/05 07:50:21;;;;;;;;;;;;;;;25.27;60.67;101442.97;5054806;28;20012;-84
2022/07/05 07:52:47;;;;;;;;;;;;;;;25.26;60.78;101450.13;5044389;28;20319;-85
2022/07/05 07:55:12;;;;;;;;;;;;;;;25.27;60.99;101454.56;5053466;28;20011;-85
2022/07/05 07:57:37;;;;;;;;;;;;;;;25.29;60.89;101449.22;5017750;28;20403;-85
2022/07/05 08:00:03;;;;;;;;;;;;;;;25.30;60.97;101451.03;5044010;28;19909;-85
2022/07/05 08:02:29;;;;;;;;;;;;;;;25.30;60.91;101451.03;5050912;28;19917;-85
2022/07/05 08:04:54;;;;;;;;;;;;;;;25.35;60.82;101449.25;5051643;28;20304;-85
2022/07/05 08:07:20;;;;;;;;;;;;;;;25.36;61.02;101454.63;5030253;28;19912;-84
2022/07/05 08:09:45;;;;;;;;;;;;;;;25.37;60.95;101463.53;5050627;28;19921;-84
2022/07/05 08:12:11;;;;;;;;;;;;;;;25.34;61.01;101464.41;5029384;28;19960;-87
2022/07/05 08:14:36;;;;;;;;;;;;;;;25.32;61.16;101458.16;5031209;28;19912;-85
2022/07/05 08:17:02;;;;;;;;;;;;;;;25.32;61.27;101467.97;5050935;28;20291;-85
2022/07/05 08:22:11;;;;;;;;;;;;;;;25.37;60.92;101461.75;5054600;28;19916;-85
2022/07/05 08:24:37;;;;;;;;;;;;;;;25.41;61.11;101465.31;5050813;28;19909;-85
2022/07/05 08:27:03;;;;;;;;;;;;;;;25.34;61.19;101467.09;5050766;28;19913;-85
2022/07/05 08:29:29;;;;;;;;;;;;;;;25.35;61.34;101467.97;5016994;28;20024;-85
2022/07/05 08:31:54;;;;;;;;;;;;;;;25.39;61.20;101470.66;5050352;28;19920;-84
2022/07/05 08:34:26;;;;;;;;;;;;;;;25.37;61.24;101466.19;5032978;28;19913;-88
2022/07/05 08:36:51;;;;;;;;;;;;;;;25.34;61.68;101474.22;5050396;28;20011;-85
2022/07/05 08:39:17;;;;;;;;;;;;;;;25.38;61.29;101474.25;5039332;28;19979;-85
2022/07/05 08:41:43;;;;;;;;;;;;;;;25.38;61.41;101474.25;5030937;28;19970;-84
2022/07/05 08:44:09;;;;;;;;;;;;;;;25.35;61.31;101466.19;5033334;28;19909;-84
2022/07/05 08:46:38;;;;;;;;;;;;;;;25.41;61.37;101470.69;5015537;28;19920;-86
2022/07/05 08:49:04;;;;;;;;;;;;;;;25.39;61.53;101480.47;5038426;28;19909;-85
2022/07/05 08:51:30;;;;;;;;;;;;;;;25.31;61.77;101472.41;5043773;28;19916;-86
2022/07/05 08:53:55;;;;;;;;;;;;;;;25.37;61.87;101476.91;5048592;28;19909;-86
2022/07/05 08:56:21;;;;;;;;;;;;;;;25.43;61.73;101481.38;5048674;28;19909;-86
2022/07/05 08:58:46;;;;;;;;;;;;;;;25.39;61.67;101477.78;5050303;28;20351;-84
2022/07/05 09:01:13;;;;;;;;;;;;;;;25.37;61.88;101484.91;5053097;28;20031;-84
2022/07/05 09:03:51;;;;;;;;;;;;;;;25.39;61.75;101484.03;5060837;28;19915;-84
2022/07/05 09:06:17;;;;;;;;;;;;;;;25.41;61.57;101478.69;5054047;28;19908;-85
2022/07/05 09:08:43;;;;;;;;;;;;;;;25.46;61.70;101479.59;5035211;28;19970;-85
2022/07/05 09:11:09;;;;;;;;;;;;;;;25.45;61.75;101479.63;5041193;28;19920;-85
2022/07/05 09:13:35;;;;;;;;;;;;;;;25.48;61.65;101476.94;5037365;28;19916;-85
2022/07/05 09:16:01;;;;;;;;;;;;;;;25.49;61.67;101471.59;5035361;28;19951;-85
2022/07/05 09:18:38;;;;;;;;;;;;;;;25.48;61.49;101472.47;5019806;28;19948;-85
2022/07/05 09:21:13;;;;;;;;;;;;;;;25.53;61.49;101469.84;5059033;28;20303;-86
2022/07/05 09:23:39;;;;;;;;;;;;;;;25.52;61.61;101468.03;5048278;28;19974;-86
2022/07/05 09:26:04;;;;;;;;;;;;;;;25.55;61.34;101470.75;5036131;28;19913;-86
2022/07/05 09:28:30;;;;;;;;;;;;;;;25.51;61.67;101469.81;5019605;28;20280;-86
2022/07/05 09:30:55;;;;;;;;;;;;;;;25.53;61.81;101475.19;5039507;28;19908;-85
2022/07/05 09:33:21;;;;;;;;;;;;;;;25.51;61.78;101474.28;5038401;28;19913;-86
2022/07/05 09:35:59;;;;;;;;;;;;;;;25.54;61.43;101472.50;5035991;28;19912;-86
2022/07/05 09:38:25;;;;;;;;;;;;;;;25.51;61.77;101467.16;5034498;28;19959;-84
2022/07/05 09:40:54;;;;;;;;;;;;;;;25.55;61.74;101463.59;5053352;28;19947;-86
2022/07/05 09:43:20;;;;;;;;;;;;;;;25.58;61.70;101466.28;5016747;28;20041;-86
2022/07/05 09:46:02;;;;;;;;;;;;;;;25.58;61.72;101460.03;5034956;28;19913;-86
2022/07/05 09:48:28;;;;;;;;;;;;;;;25.61;61.71;101454.69;5051615;28;19912;-85
2022/07/05 09:51:07;;;;;;;;;;;;;;;25.59;61.56;101454.69;5051069;28;20288;-85
2022/07/05 09:53:48;;;;;;;;;;;;;;;25.55;61.83;101452.91;5011786;28;19916;-85
2022/07/05 09:56:17;;;;;;;;;;;;;;;25.62;61.29;101448.47;5049750;28;19944;-85
2022/07/05 09:58:43;;;;;;;;;;;;;;;25.57;61.92;101455.59;5042444;28;19909;-86
2022/07/05 10:01:27;;;;;;;;;;;;;;;25.59;61.50;101445.78;5035662;28;19915;-85
2022/07/05 10:03:56;;;;;;;;;;;;;;;25.58;61.65;101446.66;5053231;28;19923;-86
2022/07/05 10:06:25;;;;;;;;;;;;;;;25.58;61.66;101442.19;5035800;28;19958;-85
2022/07/05 10:08:52;;;;;;;;;;;;;;;25.59;61.96;101438.66;5035783;28;19908;-86
2022/07/05 10:11:18;;;;;;;;;;;;;;;25.60;61.46;101439.53;5035479;28;19908;-84
2022/07/05 10:13:44;;;;;;;;;;;;;;;25.64;61.69;101430.63;5053380;28;19920;-82
2022/07/05 10:16:10;;;;;;;;;;;;;;;25.63;61.67;101433.28;5019353;28;20356;-81
2022/07/05 10:18:35;;;;;;;;;;;;;;;25.64;61.67;101435.09;5040319;28;19920;-80
2022/07/05 10:21:01;;;;;;;;;;;;;;;25.66;61.75;101431.53;5024611;28;20003;-80
2022/07/05 10:23:26;;;;;;;;;;;;;;;25.68;61.21;101435.09;5024619;28;19920;-80
2022/07/05 10:25:52;;;;;;;;;;;;;;;25.66;61.70;101439.56;5043634;28;19970;-80
2022/07/05 10:28:18;;;;;;;;;;;;;;;25.63;61.63;101431.50;5032969;28;20359;-80
2022/07/05 10:30:50;;;;;;;;;;;;;;;25.64;61.79;101444.00;5035149;28;19909;-80
2022/07/05 10:33:19;;;;;;;;;;;;;;;25.60;61.83;101444.88;5052814;28;19976;-80
2022/07/05 10:35:44;;;;;;;;;;;;;;;25.65;61.60;101435.09;5015071;28;19912;-81
2022/07/05 10:38:10;;;;;;;;;;;;;;;25.67;61.88;101441.31;5032962;28;19979;-80
2022/07/05 10:40:36;;;;;;;;;;;;;;;25.62;61.88;101442.22;5016094;28;19927;-80
2022/07/05 10:43:02;;;;;;;;;;;;;;;25.64;61.78;101438.66;5017688;28;20445;-81
2022/07/05 10:45:27;;;;;;;;;;;;;;;25.65;62.06;101439.53;5048668;28;19948;-80
2022/07/05 10:48:11;;;;;;;;;;;;;;;25.65;62.05;101444.91;5047157;28;20003;-80
2022/07/05 10:50:54;;;;;;;;;;;;;;;25.66;61.90;101439.56;5049811;28;19927;-80
2022/07/05 10:53:24;;;;;;;;;;;;;;;25.66;61.96;101434.22;5051746;28;19956;-81
2022/07/05 10:55:59;;;;;;;;;;;;;;;25.66;62.09;101433.31;5052159;28;20014;-81
2022/07/05 10:58:25;;;;;;;;;;;;;;;25.71;61.55;101429.75;5026937;28;19951;-80
2022/07/05 11:01:09;;;;;;;;;;;;;;;25.72;61.86;101430.66;5046815;28;19908;-82
2022/07/05 11:03:41;;;;;;;;;;;;;;;25.71;61.81;101431.53;5052790;28;20441;-81
2022/07/05 11:06:10;;;;;;;;;;;;;;;25.76;61.86;101429.75;5044984;28;19955;-81
2022/07/05 11:08:54;;;;;;;;;;;;;;;25.78;61.68;101431.56;5045708;28;19959;-81
2022/07/05 11:11:23;;;;;;;;;;;;;;;25.72;61.60;101431.56;5045171;28;19913;-81
2022/07/05 11:13:48;;;;;;;;;;;;;;;25.73;61.63;101425.28;5034574;28;19920;-80
2022/07/05 11:16:27;;;;;;;;;;;;;;;25.71;61.94;101423.50;5051468;28;19917;-81
2022/07/05 11:19:13;;;;;;;;;;;;;;;25.74;61.92;101420.88;5052416;28;19956;-80
2022/07/05 11:21:42;;;;;;;;;;;;;;;25.74;61.99;101419.06;5051250;28;19909;-81
2022/07/05 11:24:21;;;;;;;;;;;;;;;25.77;61.73;101426.19;5028342;28;19936;-81
2022/07/05 11:26:52;;;;;;;;;;;;;;;25.73;61.99;101422.63;5032684;28;19919;-81
2022/07/05 11:29:36;;;;;;;;;;;;;;;25.78;61.77;101420.88;5052330;28;19915;-80
2022/07/05 11:32:05;;;;;;;;;;;;;;;25.79;61.55;101422.63;5040751;28;19971;-81
2022/07/05 11:34:34;;;;;;;;;;;;;;;25.82;61.55;101419.06;5050003;28;19912;-80
2022/07/05 11:37:18;;;;;;;;;;;;;;;25.80;61.50;101423.50;5051043;28;19969;-80
2022/07/05 11:39:44;;;;;;;;;;;;;;;25.80;61.87;101424.44;5050323;28;19935;-80
2022/07/05 11:42:11;;;;;;;;;;;;;;;25.79;61.79;101427.09;5031462;28;20019;-82
2022/07/05 11:44:40;;;;;;;;;;;;;;;25.84;61.69;101419.06;5034736;28;19958;-81
2022/07/05 11:47:05;;;;;;;;;;;;;;;25.82;61.78;101411.03;5051741;28;19909;-80
2022/07/05 11:49:31;;;;;;;;;;;;;;;25.85;61.70;101416.41;5048677;28;19916;-81
2022/07/05 11:51:57;;;;;;;;;;;;;;;25.84;61.74;101411.94;5044400;28;20566;-81
2022/07/05 11:54:23;;;;;;;;;;;;;;;25.88;61.50;101407.47;5050357;28;19912;-80
2022/07/05 11:56:50;;;;;;;;;;;;;;;25.86;61.79;101401.25;5034688;28;19916;-81
2022/07/05 11:59:22;;;;;;;;;;;;;;;25.88;61.93;101399.44;5042448;28;20388;-80
2022/07/05 12:01:47;;;;;;;;;;;;;;;25.92;61.56;101399.50;5048314;28;19912;-81
2022/07/05 12:04:20;;;;;;;;;;;;;;;25.92;61.72;101394.13;5026942;28;19923;-80
2022/07/05 12:06:50;;;;;;;;;;;;;;;25.92;61.63;101394.13;5041274;28;19912;-82
2022/07/05 12:09:21;;;;;;;;;;;;;;;25.90;61.79;101400.38;5025014;28;19915;-80
2022/07/05 12:14:34;;;;;;;;;;;;;;;25.95;61.45;101386.13;5054220;28;19932;-81
2022/07/05 12:17:15;;;;;;;;;;;;;;;25.90;61.55;101385.22;5025002;28;20368;-80
2022/07/05 12:19:41;;;;;;;;;;;;;;;25.88;61.79;101375.38;5047386;28;20291;-81
2022/07/05 12:22:06;;;;;;;;;;;;;;;25.95;61.56;101374.50;5051277;28;19908;-80
2022/07/05 12:24:32;;;;;;;;;;;;;;;25.92;61.54;101374.50;5051803;28;20327;-80
2022/07/05 12:26:57;;;;;;;;;;;;;;;25.93;61.82;101370.94;5033830;28;20073;-81
2022/07/05 12:29:23;;;;;;;;;;;;;;;25.92;61.62;101363.81;5037459;28;19915;-81
2022/07/05 12:31:58;;;;;;;;;;;;;;;25.92;61.55;101364.69;5037611;28;20350;-82
2022/07/05 12:34:24;;;;;;;;;;;;;;;25.95;61.85;101369.16;5055391;28;20442;-82
2022/07/05 12:36:49;;;;;;;;;;;;;;;25.97;61.37;101367.38;5054353;28;19917;-81
2022/07/05 12:39:17;;;;;;;;;;;;;;;25.96;61.69;101361.13;5053499;28;20003;-81
2022/07/05 12:41:43;;;;;;;;;;;;;;;25.96;61.62;101365.59;5053880;28;20003;-81